sensor_id;sensor_type;location;lat;lon;timestamp;temperature;humidity
53776;DHT22;44276;49.534;6.378;2023-05-07T00:00:17;10.50;99.90
53776;DHT22;44276;49.534;6.378;2023-05-07T00:02:46;10.50;99.90
53776;DHT22;44276;49.534;6.378;2023-05-07T00:05:16;10.60;99.90
53776;DHT22;44276;49.534;6.378;2023-05-07T00:07:46;10.70;99.90
53776;DHT22;44276;49.534;6.378;2023-05-07T00:10:14;10.70;99.90
53776;DHT22;44276;49.534;6.378;2023-05-07T00:12:42;10.60;99.90
53776;DHT22;44276;49.534;6.378;2023-05-07T00:15:11;10.60;99.90
53776;DHT22;44276;49.534;6.378;2023-05-07T00:17:39;10.60;99.90
53776;DHT22;44276;49.534;6.378;2023-05-07T00:20:08;10.50;99.90
53776;DHT22;44276;49.534;6.378;2023-05-07T00:22:37;10.40;99.90
53776;DHT22;44276;49.534;6.378;2023-05-07T00:25:07;10.20;99.90
53776;DHT22;44276;49.534;6.378;2023-05-07T00:27:36;10.20;99.90
53776;DHT22;44276;49.534;6.378;2023-05-07T00:30:06;10.20;99.90
53776;DHT22;44276;49.534;6.378;2023-05-07T00:32:35;10.20;99.90
53776;DHT22;44276;49.534;6.378;2023-05-07T00:35:04;10.30;99.90
53776;DHT22;44276;49.534;6.378;2023-05-07T00:37:33;10.30;99.90
53776;DHT22;44276;49.534;6.378;2023-05-07T00:40:01;10.30;99.90
53776;DHT22;44276;49.534;6.378;2023-05-07T00:42:32;10.30;99.90
53776;DHT22;44276;49.534;6.378;2023-05-07T00:45:00;10.30;99.90
53776;DHT22;44276;49.534;6.378;2023-05-07T00:47:29;10.30;99.90
53776;DHT22;44276;49.534;6.378;2023-05-07T00:49:58;10.40;99.90
53776;DHT22;44276;49.534;6.378;2023-05-07T00:52:27;10.40;99.90
53776;DHT22;44276;49.534;6.378;2023-05-07T00:54:57;10.30;99.90
53776;DHT22;44276;49.534;6.378;2023-05-07T00:57:28;10.20;99.90
53776;DHT22;44276;49.534;6.378;2023-05-07T00:59:58;10.30;99.90
53776;DHT22;44276;49.534;6.378;2023-05-07T01:02:26;10.30;99.90
53776;DHT22;44276;49.534;6.378;2023-05-07T01:04:55;10.30;99.90
53776;DHT22;44276;49.534;6.378;2023-05-07T01:07:24;10.20;99.90
53776;DHT22;44276;49.534;6.378;2023-05-07T01:09:52;10.30;99.90
53776;DHT22;44276;49.534;6.378;2023-05-07T01:12:21;10.30;99.90
53776;DHT22;44276;49.534;6.378;2023-05-07T01:14:49;10.30;99.90
53776;DHT22;44276;49.534;6.378;2023-05-07T01:17:19;10.20;99.90
53776;DHT22;44276;49.534;6.378;2023-05-07T01:19:47;10.10;99.90
53776;DHT22;44276;49.534;6.378;2023-05-07T01:22:24;10.00;99.90
53776;DHT22;44276;49.534;6.378;2023-05-07T01:24:56;10.10;99.90
53776;DHT22;44276;49.534;6.378;2023-05-07T01:27:26;10.00;99.90
53776;DHT22;44276;49.534;6.378;2023-05-07T01:29:54;10.00;99.90
53776;DHT22;44276;49.534;6.378;2023-05-07T01:32:27;9.90;99.90
53776;DHT22;44276;49.534;6.378;2023-05-07T01:34:58;9.90;99.90
53776;DHT22;44276;49.534;6.378;2023-05-07T01:37:30;9.70;99.90
53776;DHT22;44276;49.534;6.378;2023-05-07T01:39:58;9.80;99.90
53776;DHT22;44276;49.534;6.378;2023-05-07T01:42:29;9.70;99.90
53776;DHT22;44276;49.534;6.378;2023-05-07T01:44:57;9.80;99.90
53776;DHT22;44276;49.534;6.378;2023-05-07T01:47:25;9.80;99.90
53776;DHT22;44276;49.534;6.378;2023-05-07T01:49:55;9.60;99.90
53776;DHT22;44276;49.534;6.378;2023-05-07T01:52:23;9.70;99.90
53776;DHT22;44276;49.534;6.378;2023-05-07T01:54:53;9.80;99.90
53776;DHT22;44276;49.534;6.378;2023-05-07T01:57:21;9.90;99.90
53776;DHT22;44276;49.534;6.378;2023-05-07T01:59:49;10.00;99.90
53776;DHT22;44276;49.534;6.378;2023-05-07T02:02:17;10.00;99.90
53776;DHT22;44276;49.534;6.378;2023-05-07T02:04:46;10.10;99.90
53776;DHT22;44276;49.534;6.378;2023-05-07T02:07:14;10.10;99.90
53776;DHT22;44276;49.534;6.378;2023-05-07T02:09:42;10.10;99.90
53776;DHT22;44276;49.534;6.378;2023-05-07T02:12:11;10.00;99.90
53776;DHT22;44276;49.534;6.378;2023-05-07T02:14:39;9.90;99.90
53776;DHT22;44276;49.534;6.378;2023-05-07T02:17:07;9.70;99.90
53776;DHT22;44276;49.534;6.378;2023-05-07T02:19:35;9.80;99.90
53776;DHT22;44276;49.534;6.378;2023-05-07T02:22:03;9.90;99.90
53776;DHT22;44276;49.534;6.378;2023-05-07T02:24:31;9.90;99.90
53776;DHT22;44276;49.534;6.378;2023-05-07T02:27:00;9.90;99.90
53776;DHT22;44276;49.534;6.378;2023-05-07T02:29:30;9.90;99.90
53776;DHT22;44276;49.534;6.378;2023-05-07T02:31:58;9.80;99.90
53776;DHT22;44276;49.534;6.378;2023-05-07T02:34:26;9.80;99.90
53776;DHT22;44276;49.534;6.378;2023-05-07T02:36:54;9.60;99.90
53776;DHT22;44276;49.534;6.378;2023-05-07T02:39:23;9.50;99.90
53776;DHT22;44276;49.534;6.378;2023-05-07T02:41:51;9.50;99.90
53776;DHT22;44276;49.534;6.378;2023-05-07T02:44:19;9.40;99.90
53776;DHT22;44276;49.534;6.378;2023-05-07T02:46:48;9.40;99.90
53776;DHT22;44276;49.534;6.378;2023-05-07T02:49:17;9.50;99.90
53776;DHT22;44276;49.534;6.378;2023-05-07T02:51:45;9.50;99.90
53776;DHT22;44276;49.534;6.378;2023-05-07T02:54:13;9.50;99.90
53776;DHT22;44276;49.534;6.378;2023-05-07T02:56:41;9.50;99.90
53776;DHT22;44276;49.534;6.378;2023-05-07T02:59:09;9.50;99.90
53776;DHT22;44276;49.534;6.378;2023-05-07T03:01:37;9.50;99.90
53776;DHT22;44276;49.534;6.378;2023-05-07T03:04:07;9.60;99.90
53776;DHT22;44276;49.534;6.378;2023-05-07T03:06:37;9.70;99.90
53776;DHT22;44276;49.534;6.378;2023-05-07T03:09:05;9.70;99.90
53776;DHT22;44276;49.534;6.378;2023-05-07T03:11:33;9.80;99.90
53776;DHT22;44276;49.534;6.378;2023-05-07T03:14:04;9.80;99.90
53776;DHT22;44276;49.534;6.378;2023-05-07T03:16:32;9.90;99.90
53776;DHT22;44276;49.534;6.378;2023-05-07T03:19:00;9.90;99.90
53776;DHT22;44276;49.534;6.378;2023-05-07T03:21:30;9.90;99.90
53776;DHT22;44276;49.534;6.378;2023-05-07T03:24:00;9.80;99.90
53776;DHT22;44276;49.534;6.378;2023-05-07T03:26:28;9.70;99.90
53776;DHT22;44276;49.534;6.378;2023-05-07T03:28:56;9.60;99.90
53776;DHT22;44276;49.534;6.378;2023-05-07T03:31:24;9.50;99.90
53776;DHT22;44276;49.534;6.378;2023-05-07T03:33:54;9.50;99.90
53776;DHT22;44276;49.534;6.378;2023-05-07T03:36:24;9.60;99.90
53776;DHT22;44276;49.534;6.378;2023-05-07T03:38:54;9.60;99.90
53776;DHT22;44276;49.534;6.378;2023-05-07T03:41:22;9.60;99.90
53776;DHT22;44276;49.534;6.378;2023-05-07T03:43:50;9.60;99.90
53776;DHT22;44276;49.534;6.378;2023-05-07T03:46:18;9.60;99.90
53776;DHT22;44276;49.534;6.378;2023-05-07T03:48:47;9.70;99.90
53776;DHT22;44276;49.534;6.378;2023-05-07T03:51:15;9.70;99.90
53776;DHT22;44276;49.534;6.378;2023-05-07T03:53:43;9.70;99.90
53776;DHT22;44276;49.534;6.378;2023-05-07T03:56:13;9.70;99.90
53776;DHT22;44276;49.534;6.378;2023-05-07T03:58:43;9.70;99.90
53776;DHT22;44276;49.534;6.378;2023-05-07T04:01:11;9.70;99.90
53776;DHT22;44276;49.534;6.378;2023-05-07T04:03:39;9.70;99.90
53776;DHT22;44276;49.534;6.378;2023-05-07T04:06:07;9.70;99.90
53776;DHT22;44276;49.534;6.378;2023-05-07T04:08:36;9.60;99.90
53776;DHT22;44276;49.534;6.378;2023-05-07T04:11:04;9.50;99.90
53776;DHT22;44276;49.534;6.378;2023-05-07T04:13:34;9.40;99.90
53776;DHT22;44276;49.534;6.378;2023-05-07T04:16:03;9.60;99.90
53776;DHT22;44276;49.534;6.378;2023-05-07T04:18:32;9.80;99.90
53776;DHT22;44276;49.534;6.378;2023-05-07T04:21:00;9.90;99.90
53776;DHT22;44276;49.534;6.378;2023-05-07T04:23:29;9.90;99.90
53776;DHT22;44276;49.534;6.378;2023-05-07T04:25:57;10.00;99.90
53776;DHT22;44276;49.534;6.378;2023-05-07T04:28:25;9.90;99.90
53776;DHT22;44276;49.534;6.378;2023-05-07T04:30:55;9.90;99.90
53776;DHT22;44276;49.534;6.378;2023-05-07T04:33:23;10.00;99.90
53776;DHT22;44276;49.534;6.378;2023-05-07T04:35:51;10.00;99.90
53776;DHT22;44276;49.534;6.378;2023-05-07T04:38:19;10.10;99.90
53776;DHT22;44276;49.534;6.378;2023-05-07T04:40:47;10.20;99.90
53776;DHT22;44276;49.534;6.378;2023-05-07T04:43:15;10.20;99.90
53776;DHT22;44276;49.534;6.378;2023-05-07T04:45:43;10.30;99.90
53776;DHT22;44276;49.534;6.378;2023-05-07T04:48:13;10.40;99.90
53776;DHT22;44276;49.534;6.378;2023-05-07T04:50:42;10.40;99.90
53776;DHT22;44276;49.534;6.378;2023-05-07T04:53:10;10.50;99.90
53776;DHT22;44276;49.534;6.378;2023-05-07T04:55:38;10.50;99.90
53776;DHT22;44276;49.534;6.378;2023-05-07T04:58:08;10.60;99.90
53776;DHT22;44276;49.534;6.378;2023-05-07T05:00:36;10.70;99.90
53776;DHT22;44276;49.534;6.378;2023-05-07T05:03:06;10.80;99.90
53776;DHT22;44276;49.534;6.378;2023-05-07T05:05:36;10.80;99.90
53776;DHT22;44276;49.534;6.378;2023-05-07T05:08:04;10.90;99.90
53776;DHT22;44276;49.534;6.378;2023-05-07T05:10:32;11.00;99.90
53776;DHT22;44276;49.534;6.378;2023-05-07T05:13:00;11.10;99.90
53776;DHT22;44276;49.534;6.378;2023-05-07T05:15:29;11.20;99.90
53776;DHT22;44276;49.534;6.378;2023-05-07T05:17:59;11.30;99.90
53776;DHT22;44276;49.534;6.378;2023-05-07T05:20:27;11.40;99.90
53776;DHT22;44276;49.534;6.378;2023-05-07T05:22:57;11.50;99.90
53776;DHT22;44276;49.534;6.378;2023-05-07T05:25:25;11.60;99.90
53776;DHT22;44276;49.534;6.378;2023-05-07T05:27:54;11.70;99.90
53776;DHT22;44276;49.534;6.378;2023-05-07T05:30:23;11.80;99.90
53776;DHT22;44276;49.534;6.378;2023-05-07T05:32:51;11.80;99.90
53776;DHT22;44276;49.534;6.378;2023-05-07T05:35:19;11.90;99.90
53776;DHT22;44276;49.534;6.378;2023-05-07T05:37:47;12.00;99.90
53776;DHT22;44276;49.534;6.378;2023-05-07T05:40:17;12.10;99.90
53776;DHT22;44276;49.534;6.378;2023-05-07T05:42:45;12.40;99.90
53776;DHT22;44276;49.534;6.378;2023-05-07T05:45:14;12.60;99.90
53776;DHT22;44276;49.534;6.378;2023-05-07T05:47:42;12.70;99.90
53776;DHT22;44276;49.534;6.378;2023-05-07T05:50:10;13.00;99.90
53776;DHT22;44276;49.534;6.378;2023-05-07T05:52:41;13.10;99.90
53776;DHT22;44276;49.534;6.378;2023-05-07T05:55:09;13.30;99.90
53776;DHT22;44276;49.534;6.378;2023-05-07T05:57:39;13.50;99.90
53776;DHT22;44276;49.534;6.378;2023-05-07T06:00:08;13.80;99.90
53776;DHT22;44276;49.534;6.378;2023-05-07T06:02:41;14.10;99.90
53776;DHT22;44276;49.534;6.378;2023-05-07T06:05:09;14.20;99.90
53776;DHT22;44276;49.534;6.378;2023-05-07T06:07:38;14.30;99.90
53776;DHT22;44276;49.534;6.378;2023-05-07T06:10:07;14.60;99.90
53776;DHT22;44276;49.534;6.378;2023-05-07T06:12:36;14.80;99.90
53776;DHT22;44276;49.534;6.378;2023-05-07T06:15:06;14.90;99.90
53776;DHT22;44276;49.534;6.378;2023-05-07T06:17:35;15.00;99.90
53776;DHT22;44276;49.534;6.378;2023-05-07T06:20:04;15.20;99.90
53776;DHT22;44276;49.534;6.378;2023-05-07T06:22:33;15.40;99.90
53776;DHT22;44276;49.534;6.378;2023-05-07T06:25:01;15.50;99.90
53776;DHT22;44276;49.534;6.378;2023-05-07T06:27:30;15.50;99.90
53776;DHT22;44276;49.534;6.378;2023-05-07T06:29:58;15.60;99.90
53776;DHT22;44276;49.534;6.378;2023-05-07T06:32:27;15.80;99.90
53776;DHT22;44276;49.534;6.378;2023-05-07T06:34:56;15.90;99.90
53776;DHT22;44276;49.534;6.378;2023-05-07T06:37:24;16.00;99.90
53776;DHT22;44276;49.534;6.378;2023-05-07T06:39:52;16.20;99.90
53776;DHT22;44276;49.534;6.378;2023-05-07T06:42:22;16.50;99.90
53776;DHT22;44276;49.534;6.378;2023-05-07T06:44:50;16.80;99.90
53776;DHT22;44276;49.534;6.378;2023-05-07T06:47:18;16.90;99.90
53776;DHT22;44276;49.534;6.378;2023-05-07T06:49:48;17.20;99.90
53776;DHT22;44276;49.534;6.378;2023-05-07T06:52:16;17.50;99.90
53776;DHT22;44276;49.534;6.378;2023-05-07T06:54:44;17.30;99.90
53776;DHT22;44276;49.534;6.378;2023-05-07T06:57:12;17.20;99.90
53776;DHT22;44276;49.534;6.378;2023-05-07T06:59:40;17.20;99.90
53776;DHT22;44276;49.534;6.378;2023-05-07T07:02:09;17.10;99.90
53776;DHT22;44276;49.534;6.378;2023-05-07T07:04:37;16.90;99.90
53776;DHT22;44276;49.534;6.378;2023-05-07T07:07:07;16.70;99.90
53776;DHT22;44276;49.534;6.378;2023-05-07T07:09:35;16.60;99.90
53776;DHT22;44276;49.534;6.378;2023-05-07T07:12:03;16.70;99.90
53776;DHT22;44276;49.534;6.378;2023-05-07T07:14:31;16.80;99.90
53776;DHT22;44276;49.534;6.378;2023-05-07T07:17:00;17.10;99.90
53776;DHT22;44276;49.534;6.378;2023-05-07T07:19:28;17.30;99.90
53776;DHT22;44276;49.534;6.378;2023-05-07T07:21:56;17.70;99.90
53776;DHT22;44276;49.534;6.378;2023-05-07T07:24:25;17.70;99.90
53776;DHT22;44276;49.534;6.378;2023-05-07T07:26:54;18.00;97.80
53776;DHT22;44276;49.534;6.378;2023-05-07T07:29:22;18.40;95.50
53776;DHT22;44276;49.534;6.378;2023-05-07T07:31:52;18.80;90.30
53776;DHT22;44276;49.534;6.378;2023-05-07T07:34:20;19.30;77.20
53776;DHT22;44276;49.534;6.378;2023-05-07T07:36:48;19.70;70.00
53776;DHT22;44276;49.534;6.378;2023-05-07T07:39:16;20.20;63.80
53776;DHT22;44276;49.534;6.378;2023-05-07T07:41:46;20.60;54.20
53776;DHT22;44276;49.534;6.378;2023-05-07T07:44:15;21.10;47.40
53776;DHT22;44276;49.534;6.378;2023-05-07T07:46:44;21.10;49.00
53776;DHT22;44276;49.534;6.378;2023-05-07T07:49:12;21.80;44.10
53776;DHT22;44276;49.534;6.378;2023-05-07T07:51:40;22.30;39.50
53776;DHT22;44276;49.534;6.378;2023-05-07T07:54:09;22.40;38.50
53776;DHT22;44276;49.534;6.378;2023-05-07T07:56:37;22.50;38.10
53776;DHT22;44276;49.534;6.378;2023-05-07T07:59:07;22.70;41.70
53776;DHT22;44276;49.534;6.378;2023-05-07T08:01:35;23.80;38.40
53776;DHT22;44276;49.534;6.378;2023-05-07T08:04:03;24.40;35.50
53776;DHT22;44276;49.534;6.378;2023-05-07T08:06:32;24.10;34.50
53776;DHT22;44276;49.534;6.378;2023-05-07T08:09:00;24.00;33.00
53776;DHT22;44276;49.534;6.378;2023-05-07T08:11:29;23.80;32.70
53776;DHT22;44276;49.534;6.378;2023-05-07T08:13:57;23.80;34.30
53776;DHT22;44276;49.534;6.378;2023-05-07T08:16:27;23.40;33.40
53776;DHT22;44276;49.534;6.378;2023-05-07T08:18:56;22.60;36.10
53776;DHT22;44276;49.534;6.378;2023-05-07T08:21:24;22.50;37.50
53776;DHT22;44276;49.534;6.378;2023-05-07T08:23:52;22.70;37.30
53776;DHT22;44276;49.534;6.378;2023-05-07T08:26:20;22.70;35.60
53776;DHT22;44276;49.534;6.378;2023-05-07T08:28:48;22.80;34.90
53776;DHT22;44276;49.534;6.378;2023-05-07T08:31:16;22.80;35.00
53776;DHT22;44276;49.534;6.378;2023-05-07T08:33:46;22.80;34.00
53776;DHT22;44276;49.534;6.378;2023-05-07T08:36:14;22.40;35.90
53776;DHT22;44276;49.534;6.378;2023-05-07T08:38:42;22.60;34.80
53776;DHT22;44276;49.534;6.378;2023-05-07T08:41:12;22.80;33.50
53776;DHT22;44276;49.534;6.378;2023-05-07T08:43:41;22.70;33.90
53776;DHT22;44276;49.534;6.378;2023-05-07T08:46:17;23.20;33.00
53776;DHT22;44276;49.534;6.378;2023-05-07T08:48:49;23.50;31.70
53776;DHT22;44276;49.534;6.378;2023-05-07T08:51:20;23.90;31.10
53776;DHT22;44276;49.534;6.378;2023-05-07T08:53:50;24.80;29.50
53776;DHT22;44276;49.534;6.378;2023-05-07T08:56:18;25.30;28.70
53776;DHT22;44276;49.534;6.378;2023-05-07T08:58:48;24.70;28.50
53776;DHT22;44276;49.534;6.378;2023-05-07T09:01:17;24.60;28.90
53776;DHT22;44276;49.534;6.378;2023-05-07T09:03:46;25.10;29.00
53776;DHT22;44276;49.534;6.378;2023-05-07T09:06:16;25.40;27.60
53776;DHT22;44276;49.534;6.378;2023-05-07T09:08:49;25.70;27.10
53776;DHT22;44276;49.534;6.378;2023-05-07T09:11:20;26.10;25.40
53776;DHT22;44276;49.534;6.378;2023-05-07T09:13:53;26.40;25.00
53776;DHT22;44276;49.534;6.378;2023-05-07T09:16:24;26.40;24.60
53776;DHT22;44276;49.534;6.378;2023-05-07T09:18:54;26.40;24.40
53776;DHT22;44276;49.534;6.378;2023-05-07T09:21:23;26.90;23.00
53776;DHT22;44276;49.534;6.378;2023-05-07T09:23:53;26.10;23.60
53776;DHT22;44276;49.534;6.378;2023-05-07T09:26:22;26.60;23.60
53776;DHT22;44276;49.534;6.378;2023-05-07T09:28:51;27.20;23.90
53776;DHT22;44276;49.534;6.378;2023-05-07T09:31:20;27.60;22.90
53776;DHT22;44276;49.534;6.378;2023-05-07T09:33:53;27.70;22.60
53776;DHT22;44276;49.534;6.378;2023-05-07T09:36:23;27.90;20.70
53776;DHT22;44276;49.534;6.378;2023-05-07T09:38:52;27.30;22.10
53776;DHT22;44276;49.534;6.378;2023-05-07T09:41:20;26.50;23.70
53776;DHT22;44276;49.534;6.378;2023-05-07T09:43:53;26.30;24.60
53776;DHT22;44276;49.534;6.378;2023-05-07T09:46:26;26.10;25.00
53776;DHT22;44276;49.534;6.378;2023-05-07T09:48:57;26.30;24.60
53776;DHT22;44276;49.534;6.378;2023-05-07T09:51:33;27.10;24.30
53776;DHT22;44276;49.534;6.378;2023-05-07T09:54:07;28.20;22.40
53776;DHT22;44276;49.534;6.378;2023-05-07T09:56:35;28.70;21.80
53776;DHT22;44276;49.534;6.378;2023-05-07T09:59:05;28.60;20.60
53776;DHT22;44276;49.534;6.378;2023-05-07T10:01:36;27.70;21.60
53776;DHT22;44276;49.534;6.378;2023-05-07T10:04:05;27.20;22.10
53776;DHT22;44276;49.534;6.378;2023-05-07T10:06:36;27.10;23.60
53776;DHT22;44276;49.534;6.378;2023-05-07T10:09:05;27.60;21.50
53776;DHT22;44276;49.534;6.378;2023-05-07T10:11:35;27.60;21.80
53776;DHT22;44276;49.534;6.378;2023-05-07T10:14:04;27.90;21.70
53776;DHT22;44276;49.534;6.378;2023-05-07T10:16:34;27.60;22.40
53776;DHT22;44276;49.534;6.378;2023-05-07T10:19:05;27.40;23.10
53776;DHT22;44276;49.534;6.378;2023-05-07T10:21:39;28.10;21.90
53776;DHT22;44276;49.534;6.378;2023-05-07T10:24:20;27.90;21.40
53776;DHT22;44276;49.534;6.378;2023-05-07T10:26:53;27.60;22.20
53776;DHT22;44276;49.534;6.378;2023-05-07T10:29:30;27.90;21.60
53776;DHT22;44276;49.534;6.378;2023-05-07T10:32:14;27.70;21.40
53776;DHT22;44276;49.534;6.378;2023-05-07T10:35:01;27.00;22.90
53776;DHT22;44276;49.534;6.378;2023-05-07T10:37:34;27.00;23.20
53776;DHT22;44276;49.534;6.378;2023-05-07T10:40:03;27.30;22.60
53776;DHT22;44276;49.534;6.378;2023-05-07T10:42:33;26.80;23.30
53776;DHT22;44276;49.534;6.378;2023-05-07T10:45:14;26.20;24.50
53776;DHT22;44276;49.534;6.378;2023-05-07T10:48:05;25.70;25.90
53776;DHT22;44276;49.534;6.378;2023-05-07T10:51:18;25.20;26.60
53776;DHT22;44276;49.534;6.378;2023-05-07T10:53:48;25.10;26.50
53776;DHT22;44276;49.534;6.378;2023-05-07T10:56:47;25.40;27.00
53776;DHT22;44276;49.534;6.378;2023-05-07T10:59:36;25.40;25.80
53776;DHT22;44276;49.534;6.378;2023-05-07T11:02:09;25.40;26.80
53776;DHT22;44276;49.534;6.378;2023-05-07T11:04:41;24.90;27.80
53776;DHT22;44276;49.534;6.378;2023-05-07T11:07:25;24.60;28.10
53776;DHT22;44276;49.534;6.378;2023-05-07T11:10:00;24.20;29.30
53776;DHT22;44276;49.534;6.378;2023-05-07T11:12:49;24.00;30.00
53776;DHT22;44276;49.534;6.378;2023-05-07T11:15:38;24.00;28.40
53776;DHT22;44276;49.534;6.378;2023-05-07T11:18:12;24.00;28.70
53776;DHT22;44276;49.534;6.378;2023-05-07T11:20:46;24.30;28.40
53776;DHT22;44276;49.534;6.378;2023-05-07T11:23:55;24.60;27.70
53776;DHT22;44276;49.534;6.378;2023-05-07T11:26:30;24.90;26.50
53776;DHT22;44276;49.534;6.378;2023-05-07T11:29:11;25.20;26.00
53776;DHT22;44276;49.534;6.378;2023-05-07T11:31:40;25.40;26.20
53776;DHT22;44276;49.534;6.378;2023-05-07T11:34:08;25.60;24.10
53776;DHT22;44276;49.534;6.378;2023-05-07T11:36:42;25.60;24.70
53776;DHT22;44276;49.534;6.378;2023-05-07T11:39:25;25.60;25.90
53776;DHT22;44276;49.534;6.378;2023-05-07T11:41:58;25.50;24.80
53776;DHT22;44276;49.534;6.378;2023-05-07T11:44:41;25.40;24.70
53776;DHT22;44276;49.534;6.378;2023-05-07T11:47:10;25.80;24.40
53776;DHT22;44276;49.534;6.378;2023-05-07T11:49:39;25.90;23.70
53776;DHT22;44276;49.534;6.378;2023-05-07T11:52:07;26.40;24.20
53776;DHT22;44276;49.534;6.378;2023-05-07T11:54:35;26.50;23.20
53776;DHT22;44276;49.534;6.378;2023-05-07T11:57:06;26.50;23.20
53776;DHT22;44276;49.534;6.378;2023-05-07T11:59:38;26.90;23.00
53776;DHT22;44276;49.534;6.378;2023-05-07T12:02:08;26.70;24.10
53776;DHT22;44276;49.534;6.378;2023-05-07T12:04:38;26.30;23.50
53776;DHT22;44276;49.534;6.378;2023-05-07T12:07:11;26.30;24.20
53776;DHT22;44276;49.534;6.378;2023-05-07T12:09:40;26.20;24.20
53776;DHT22;44276;49.534;6.378;2023-05-07T12:12:10;25.90;24.10
53776;DHT22;44276;49.534;6.378;2023-05-07T12:14:40;25.70;24.30
53776;DHT22;44276;49.534;6.378;2023-05-07T12:17:09;25.50;24.80
53776;DHT22;44276;49.534;6.378;2023-05-07T12:19:41;25.30;25.20
53776;DHT22;44276;49.534;6.378;2023-05-07T12:22:11;25.20;24.00
53776;DHT22;44276;49.534;6.378;2023-05-07T12:24:44;25.20;24.70
53776;DHT22;44276;49.534;6.378;2023-05-07T12:27:15;25.00;24.70
53776;DHT22;44276;49.534;6.378;2023-05-07T12:29:44;25.50;23.90
53776;DHT22;44276;49.534;6.378;2023-05-07T12:32:16;25.60;24.10
53776;DHT22;44276;49.534;6.378;2023-05-07T12:34:45;25.40;24.50
53776;DHT22;44276;49.534;6.378;2023-05-07T12:37:14;24.80;26.50
53776;DHT22;44276;49.534;6.378;2023-05-07T12:39:47;24.20;27.10
53776;DHT22;44276;49.534;6.378;2023-05-07T12:42:20;23.90;28.40
53776;DHT22;44276;49.534;6.378;2023-05-07T12:44:50;23.50;30.30
53776;DHT22;44276;49.534;6.378;2023-05-07T12:47:18;23.30;33.10
53776;DHT22;44276;49.534;6.378;2023-05-07T12:49:48;23.20;34.50
53776;DHT22;44276;49.534;6.378;2023-05-07T12:52:16;23.10;36.50
53776;DHT22;44276;49.534;6.378;2023-05-07T12:54:44;22.80;36.30
53776;DHT22;44276;49.534;6.378;2023-05-07T12:57:12;22.60;37.90
53776;DHT22;44276;49.534;6.378;2023-05-07T12:59:42;22.50;37.90
53776;DHT22;44276;49.534;6.378;2023-05-07T13:02:10;22.50;39.40
53776;DHT22;44276;49.534;6.378;2023-05-07T13:04:39;22.40;40.80
53776;DHT22;44276;49.534;6.378;2023-05-07T13:07:07;22.60;39.70
53776;DHT22;44276;49.534;6.378;2023-05-07T13:09:36;22.80;38.00
53776;DHT22;44276;49.534;6.378;2023-05-07T13:12:04;23.00;36.90
53776;DHT22;44276;49.534;6.378;2023-05-07T13:14:33;23.00;37.10
53776;DHT22;44276;49.534;6.378;2023-05-07T13:17:03;23.20;37.70
53776;DHT22;44276;49.534;6.378;2023-05-07T13:19:31;23.40;36.00
53776;DHT22;44276;49.534;6.378;2023-05-07T13:21:59;23.60;34.20
53776;DHT22;44276;49.534;6.378;2023-05-07T13:24:27;23.50;33.20
53776;DHT22;44276;49.534;6.378;2023-05-07T13:26:55;23.30;34.30
53776;DHT22;44276;49.534;6.378;2023-05-07T13:29:23;23.30;33.70
53776;DHT22;44276;49.534;6.378;2023-05-07T13:31:55;23.10;34.40
53776;DHT22;44276;49.534;6.378;2023-05-07T13:34:25;23.00;35.70
53776;DHT22;44276;49.534;6.378;2023-05-07T13:36:53;23.00;36.70
53776;DHT22;44276;49.534;6.378;2023-05-07T13:39:22;22.90;35.70
53776;DHT22;44276;49.534;6.378;2023-05-07T13:41:50;22.80;35.00
53776;DHT22;44276;49.534;6.378;2023-05-07T13:44:18;22.70;35.60
53776;DHT22;44276;49.534;6.378;2023-05-07T13:46:46;22.60;36.80
53776;DHT22;44276;49.534;6.378;2023-05-07T13:49:14;22.70;35.50
53776;DHT22;44276;49.534;6.378;2023-05-07T13:51:43;22.80;35.30
53776;DHT22;44276;49.534;6.378;2023-05-07T13:54:12;23.00;35.60
53776;DHT22;44276;49.534;6.378;2023-05-07T13:56:40;22.90;35.00
53776;DHT22;44276;49.534;6.378;2023-05-07T13:59:08;22.60;35.00
53776;DHT22;44276;49.534;6.378;2023-05-07T14:01:36;22.50;33.10
53776;DHT22;44276;49.534;6.378;2023-05-07T14:04:04;22.70;31.60
53776;DHT22;44276;49.534;6.378;2023-05-07T14:06:32;22.90;31.80
53776;DHT22;44276;49.534;6.378;2023-05-07T14:09:02;23.10;32.00
53776;DHT22;44276;49.534;6.378;2023-05-07T14:11:30;23.20;31.10
53776;DHT22;44276;49.534;6.378;2023-05-07T14:14:01;23.40;32.30
53776;DHT22;44276;49.534;6.378;2023-05-07T14:16:29;23.30;31.20
53776;DHT22;44276;49.534;6.378;2023-05-07T14:18:57;23.00;32.00
53776;DHT22;44276;49.534;6.378;2023-05-07T14:21:25;22.90;34.50
53776;DHT22;44276;49.534;6.378;2023-05-07T14:23:54;22.60;33.50
53776;DHT22;44276;49.534;6.378;2023-05-07T14:26:24;22.40;36.80
53776;DHT22;44276;49.534;6.378;2023-05-07T14:28:53;22.20;35.10
53776;DHT22;44276;49.534;6.378;2023-05-07T14:31:24;21.90;37.00
53776;DHT22;44276;49.534;6.378;2023-05-07T14:33:52;21.70;38.40
53776;DHT22;44276;49.534;6.378;2023-05-07T14:36:21;21.60;39.30
53776;DHT22;44276;49.534;6.378;2023-05-07T14:38:51;21.50;39.10
53776;DHT22;44276;49.534;6.378;2023-05-07T14:41:23;21.30;42.70
53776;DHT22;44276;49.534;6.378;2023-05-07T14:43:51;21.20;43.10
53776;DHT22;44276;49.534;6.378;2023-05-07T14:46:19;21.10;45.00
53776;DHT22;44276;49.534;6.378;2023-05-07T14:48:47;21.10;47.70
53776;DHT22;44276;49.534;6.378;2023-05-07T14:51:15;21.00;49.10
53776;DHT22;44276;49.534;6.378;2023-05-07T14:53:44;20.90;48.40
53776;DHT22;44276;49.534;6.378;2023-05-07T14:56:12;20.90;49.70
53776;DHT22;44276;49.534;6.378;2023-05-07T14:58:41;20.90;50.90
53776;DHT22;44276;49.534;6.378;2023-05-07T15:01:10;20.90;54.60
53776;DHT22;44276;49.534;6.378;2023-05-07T15:03:39;20.90;56.90
53776;DHT22;44276;49.534;6.378;2023-05-07T15:06:07;20.90;57.50
53776;DHT22;44276;49.534;6.378;2023-05-07T15:08:35;20.90;56.70
53776;DHT22;44276;49.534;6.378;2023-05-07T15:11:03;20.80;54.50
53776;DHT22;44276;49.534;6.378;2023-05-07T15:13:32;20.90;55.70
53776;DHT22;44276;49.534;6.378;2023-05-07T15:16:01;21.00;56.20
53776;DHT22;44276;49.534;6.378;2023-05-07T15:18:29;21.00;57.30
53776;DHT22;44276;49.534;6.378;2023-05-07T15:20:57;21.00;53.00
53776;DHT22;44276;49.534;6.378;2023-05-07T15:23:25;21.00;50.30
53776;DHT22;44276;49.534;6.378;2023-05-07T15:25:53;21.00;52.20
53776;DHT22;44276;49.534;6.378;2023-05-07T15:28:22;20.90;53.90
53776;DHT22;44276;49.534;6.378;2023-05-07T15:30:51;20.90;52.00
53776;DHT22;44276;49.534;6.378;2023-05-07T15:33:23;20.90;51.70
53776;DHT22;44276;49.534;6.378;2023-05-07T15:35:51;21.00;54.20
53776;DHT22;44276;49.534;6.378;2023-05-07T15:38:19;21.00;50.30
53776;DHT22;44276;49.534;6.378;2023-05-07T15:40:47;21.00;51.80
53776;DHT22;44276;49.534;6.378;2023-05-07T15:43:16;21.00;49.90
53776;DHT22;44276;49.534;6.378;2023-05-07T15:45:44;21.10;50.50
53776;DHT22;44276;49.534;6.378;2023-05-07T15:48:12;21.10;50.20